Time;durP1;ratioP1;P1;durP2;ratioP2;P2;SDS_P1;SDS_P2;PMS_P1;PMS_P2;Temp;Humidity;BMP_temperature;BMP_pressure;BME280_temperature;BME280_humidity;BME280_pressure;Samples;Min_cycle;Max_cycle;Signal;HPM_P1;HPM_P2
2021/06/11 00:01:09;;;;;;;14.80;10.73;;;;;;;15.47;93.34;99081.19;4974896;28;20034;-65
2021/06/11 00:03:36;;;;;;;14.55;11.30;;;;;;;15.36;94.12;99083.84;4973938;28;20118;-64
2021/06/11 00:06:01;;;;;;;15.18;10.95;;;;;;;15.32;94.34;99083.44;4966986;28;20493;-65
2021/06/11 00:08:29;;;;;;;14.27;11.00;;;;;;;15.48;94.10;99087.47;4961871;28;20027;-65
2021/06/11 00:10:54;;;;;;;13.50;10.45;;;;;;;15.49;93.80;99081.78;4968960;28;20445;-65
2021/06/11 00:13:19;;;;;;;12.80;10.70;;;;;;;15.34;93.65;99068.53;4973173;28;20058;-65
2021/06/11 00:15:45;;;;;;;15.73;10.48;;;;;;;15.47;93.56;99083.91;4974457;28;20105;-65
2021/06/11 00:18:10;;;;;;;15.30;10.75;;;;;;;15.44;93.64;99083.53;4974292;28;20105;-65
2021/06/11 00:20:36;;;;;;;17.73;10.70;;;;;;;15.34;94.15;99073.97;4974507;28;20576;-65
2021/06/11 00:23:01;;;;;;;15.98;10.88;;;;;;;15.26;94.84;99071.56;4974155;28;20030;-64
2021/06/11 00:25:27;;;;;;;20.75;10.73;;;;;;;15.05;94.58;99058.41;4974201;28;20038;-65
2021/06/11 00:27:59;;;;;;;17.20;10.10;;;;;;;15.03;94.51;99076.84;4973754;28;20124;-65
2021/06/11 00:30:25;;;;;;;13.20;9.57;;;;;;;14.91;94.93;99076.78;4972985;28;20560;-65
2021/06/11 00:32:50;;;;;;;15.70;10.23;;;;;;;14.86;95.40;99082.06;4974302;28;20030;-65
2021/06/11 00:35:16;;;;;;;14.07;9.63;;;;;;;14.84;95.59;99079.56;4974381;28;20401;-65
2021/06/11 00:37:41;;;;;;;14.65;9.93;;;;;;;14.84;95.57;99079.56;4973241;28;20031;-64
2021/06/11 00:40:09;;;;;;;13.00;9.95;;;;;;;14.83;95.80;99077.06;4972508;28;20031;-65
2021/06/11 00:42:35;;;;;;;16.52;10.13;;;;;;;14.74;95.69;99073.78;4973909;28;20031;-64
2021/06/11 00:45:01;;;;;;;12.30;9.25;;;;;;;14.88;95.65;99074.47;4974019;28;20090;-64
2021/06/11 00:47:27;;;;;;;15.68;10.80;;;;;;;14.80;95.83;99086.53;4973738;28;20528;-64
2021/06/11 00:49:52;;;;;;;15.02;10.25;;;;;;;14.69;96.09;99076.34;4973750;28;20034;-65
2021/06/11 00:52:18;;;;;;;13.43;9.50;;;;;;;14.68;96.44;99069.25;4973043;28;20077;-64
2021/06/11 00:54:44;;;;;;;16.48;10.35;;;;;;;14.58;96.63;99067.00;4960693;28;20536;-65
2021/06/11 00:57:10;;;;;;;20.45;10.65;;;;;;;14.69;96.72;99085.34;4961447;28;20382;-65
2021/06/11 00:59:37;;;;;;;16.63;10.93;;;;;;;14.67;96.49;99079.31;4973119;28;20034;-65
2021/06/11 01:02:03;;;;;;;16.02;10.50;;;;;;;14.73;96.51;99080.28;4973778;28;20169;-64
2021/06/11 01:04:28;;;;;;;17.42;9.27;;;;;;;14.68;96.50;99053.72;4973052;28;20109;-65
2021/06/11 01:06:54;;;;;;;12.45;9.10;;;;;;;14.93;95.50;99073.81;4972385;28;20038;-64
2021/06/11 01:09:19;;;;;;;14.52;8.07;;;;;;;14.94;95.03;99078.22;4972638;28;20057;-65
2021/06/11 01:11:45;;;;;;;14.52;8.88;;;;;;;14.85;94.59;99074.94;4973332;28;20027;-65
2021/06/11 01:14:11;;;;;;;11.38;8.45;;;;;;;14.54;94.95;99065.81;4973814;28;20366;-66
2021/06/11 01:16:38;;;;;;;14.65;9.13;;;;;;;14.50;96.24;99078.16;4968285;28;20026;-66
2021/06/11 01:19:06;;;;;;;15.18;9.38;;;;;;;14.20;96.11;99038.00;4965134;28;20022;-66
2021/06/11 01:21:36;;;;;;;13.97;9.90;;;;;;;14.30;96.62;99072.84;4973100;28;20038;-65
2021/06/11 01:24:15;;;;;;;11.00;8.93;;;;;;;14.18;96.90;99072.75;4970836;28;20038;-66
2021/06/11 01:26:43;;;;;;;12.07;9.25;;;;;;;14.24;98.07;99060.13;4968984;28;20029;-65
2021/06/11 01:29:12;;;;;;;12.27;9.50;;;;;;;14.18;98.08;99067.31;4973334;28;20029;-65
2021/06/11 01:31:41;;;;;;;11.98;9.57;;;;;;;14.12;97.46;99065.47;4972418;28;20031;-66
2021/06/11 01:34:11;;;;;;;15.25;11.55;;;;;;;14.06;97.40;99066.34;4973088;28;20121;-66
2021/06/11 01:36:40;;;;;;;14.05;10.32;;;;;;;14.05;97.83;99080.16;4972956;28;20037;-65
2021/06/11 01:39:08;;;;;;;17.20;10.70;;;;;;;14.01;97.93;99074.31;4972061;28;20191;-66
2021/06/11 01:41:35;;;;;;;11.68;9.05;;;;;;;13.97;97.86;99073.09;4971170;28;20034;-64
2021/06/11 01:44:02;;;;;;;15.20;10.10;;;;;;;13.91;98.09;99068.50;4972291;28;20054;-64
2021/06/11 01:46:30;;;;;;;11.77;8.60;;;;;;;13.88;98.03;99075.22;4964013;28;20090;-65
2021/06/11 01:48:58;;;;;;;16.77;9.60;;;;;;;13.82;98.19;99076.94;4959759;28;20090;-65
2021/06/11 01:51:24;;;;;;;15.45;10.60;;;;;;;13.74;99.02;99055.44;4973035;28;20034;-65
2021/06/11 01:53:51;;;;;;;12.93;9.48;;;;;;;13.83;98.84;99077.75;4972578;28;20457;-65
2021/06/11 01:56:19;;;;;;;13.30;9.15;;;;;;;14.10;99.30;99073.00;4970902;28;20465;-65
2021/06/11 01:58:46;;;;;;;13.47;9.60;;;;;;;13.97;99.05;99073.94;4972376;28;20402;-65
2021/06/11 02:01:12;;;;;;;14.63;10.70;;;;;;;13.84;98.95;99051.44;4973054;28;20309;-65
2021/06/11 02:03:39;;;;;;;14.70;9.65;;;;;;;13.94;98.93;99074.38;4971708;28;20441;-64
2021/06/11 02:06:05;;;;;;;14.55;10.35;;;;;;;13.89;98.95;99074.19;4972569;28;20031;-65
2021/06/11 02:08:32;;;;;;;18.67;10.60;;;;;;;13.85;98.82;99080.28;4972340;28;20124;-65
2021/06/11 02:10:58;;;;;;;13.52;9.35;;;;;;;13.79;99.31;99082.81;4972151;28;20027;-65
2021/06/11 02:13:24;;;;;;;13.40;8.95;;;;;;;13.78;99.31;99073.00;4972477;28;20508;-64
2021/06/11 02:15:50;;;;;;;14.70;9.85;;;;;;;13.81;99.22;99079.88;4972401;28;20121;-65
2021/06/11 02:18:16;;;;;;;10.75;8.95;;;;;;;13.76;99.63;99077.81;4972992;28;20579;-64
2021/06/11 02:20:42;;;;;;;15.60;10.70;;;;;;;13.73;99.55;99086.41;4972102;28;20118;-65
2021/06/11 02:23:07;;;;;;;16.75;9.98;;;;;;;13.75;100.00;99081.59;4967930;28;20023;-65
2021/06/11 02:25:32;;;;;;;14.20;9.48;;;;;;;13.85;99.80;99083.00;4971273;28;20114;-65
2021/06/11 02:27:58;;;;;;;13.98;9.48;;;;;;;13.59;98.11;99052.16;4972368;28;20035;-64
2021/06/11 02:30:24;;;;;;;13.95;10.25;;;;;;;13.64;97.73;99076.00;4972073;28;20031;-67
2021/06/11 02:32:50;;;;;;;13.15;9.50;;;;;;;13.70;97.60;99075.97;4972441;28;20124;-65
2021/06/11 02:35:21;;;;;;;16.42;9.15;;;;;;;13.63;97.49;99077.06;4973842;28;20656;-65
2021/06/11 02:37:47;;;;;;;17.60;8.70;;;;;;;13.67;96.97;99079.09;4972572;28;20496;-64
2021/06/11 02:40:13;;;;;;;11.65;8.60;;;;;;;13.58;96.93;99081.25;4972341;28;20042;-65
2021/06/11 02:42:41;;;;;;;12.50;8.77;;;;;;;13.63;96.99;99071.63;4971960;28;20031;-65
2021/06/11 02:45:24;;;;;;;15.05;9.48;;;;;;;13.62;97.04;99062.59;4972626;28;20058;-65
2021/06/11 02:48:02;;;;;;;11.15;8.18;;;;;;;13.80;95.97;99076.31;4958438;28;20042;-65
2021/06/11 02:50:33;;;;;;;10.90;8.05;;;;;;;13.72;95.46;99075.75;4972229;28;20033;-67
2021/06/11 02:53:01;;;;;;;16.15;8.90;;;;;;;13.75;96.03;99072.59;4971096;28;20336;-65
2021/06/11 02:55:28;;;;;;;12.15;8.13;;;;;;;13.73;96.23;99070.09;4975110;28;20620;-64
2021/06/11 02:58:12;;;;;;;16.00;8.57;;;;;;;13.68;96.59;99074.53;4976422;28;20029;-65
2021/06/11 03:00:40;;;;;;;14.80;8.75;;;;;;;13.37;97.13;99038.91;4970500;28;20031;-65
2021/06/11 03:03:15;;;;;;;15.68;9.35;;;;;;;13.50;97.67;99070.63;4975473;28;20030;-65
2021/06/11 03:05:42;;;;;;;15.77;9.40;;;;;;;13.42;97.67;99070.03;4975721;28;20404;-64
2021/06/11 03:08:11;;;;;;;13.50;9.77;;;;;;;13.37;97.81;99073.38;4971465;28;20027;-65
2021/06/11 03:10:37;;;;;;;;;;;;;;;13.46;98.78;99076.69;4973319;28;20038;-65
2021/06/11 03:13:04;;;;;;;14.23;9.65;;;;;;;13.46;98.47;99068.53;4976083;28;19914;-65
2021/06/11 03:15:32;;;;;;;15.90;8.35;;;;;;;13.43;97.85;99071.69;4975892;28;20078;-65
2021/06/11 03:18:04;;;;;;;17.05;8.63;;;;;;;13.35;97.00;99073.59;4974991;28;20066;-65
2021/06/11 03:20:36;;;;;;;11.70;8.20;;;;;;;13.33;97.04;99080.28;4975655;28;20027;-65
2021/06/11 03:23:05;;;;;;;15.32;8.07;;;;;;;13.31;96.75;99079.69;4974710;28;20039;-65
2021/06/11 03:25:36;;;;;;;15.07;8.63;;;;;;;13.42;96.19;99075.47;4973985;28;20496;-65
2021/06/11 03:28:23;;;;;;;12.25;8.52;;;;;;;13.44;96.01;99086.94;4975653;28;20313;-65
2021/06/11 03:30:54;;;;;;;10.95;8.05;;;;;;;13.50;95.86;99091.53;4974800;28;20047;-65
2021/06/11 03:33:27;;;;;;;12.52;8.73;;;;;;;13.54;96.09;99095.47;4975298;28;20109;-64
2021/06/11 03:36:05;;;;;;;13.93;8.82;;;;;;;13.61;95.61;99082.69;4975286;28;20481;-65
2021/06/11 03:38:36;;;;;;;13.52;9.02;;;;;;;13.48;95.79;99059.13;4965697;28;20447;-65
2021/06/11 03:41:02;;;;;;;13.50;9.50;;;;;;;13.68;96.04;99091.66;4974941;28;20545;-65
2021/06/11 03:43:28;;;;;;;12.90;8.18;;;;;;;13.74;95.54;99085.34;4975342;28;20035;-65
2021/06/11 03:45:56;;;;;;;13.65;8.40;;;;;;;13.71;94.08;99085.78;4974934;28;20031;-64
2021/06/11 03:48:24;;;;;;;10.63;7.30;;;;;;;13.72;93.39;99092.88;4975600;28;20512;-65
2021/06/11 03:50:51;;;;;;;10.40;7.20;;;;;;;13.71;92.40;99079.53;4974946;28;20401;-65
2021/06/11 03:53:21;;;;;;;9.40;7.32;;;;;;;13.76;92.09;99085.16;4974903;28;20027;-65
2021/06/11 03:55:48;;;;;;;11.45;7.40;;;;;;;13.83;92.10;99088.63;4972214;28;20054;-65
2021/06/11 03:58:22;;;;;;;10.73;7.00;;;;;;;13.84;92.80;99082.16;4974656;28;20042;-65
2021/06/11 04:00:50;;;;;;;8.07;6.82;;;;;;;13.87;93.55;99079.00;4975436;28;20551;-65
2021/06/11 04:03:16;;;;;;;9.80;7.22;;;;;;;13.89;93.62;99079.63;4973608;28;20034;-65
2021/06/11 04:05:41;;;;;;;10.98;8.18;;;;;;;13.97;93.40;99082.09;4972994;28;20114;-65
2021/06/11 04:08:10;;;;;;;11.52;8.10;;;;;;;14.01;93.62;99085.19;4974402;28;20019;-65
2021/06/11 04:10:53;;;;;;;;;;;;;;;14.05;93.29;99080.16;4974004;28;20046;-65
2021/06/11 04:13:38;;;;;;;11.70;7.45;;;;;;;14.10;92.77;99080.34;4974518;28;19938;-65
2021/06/11 04:16:07;;;;;;;11.10;8.27;;;;;;;14.21;91.99;99085.91;4974633;28;20493;-65
2021/06/11 04:18:35;;;;;;;10.15;6.80;;;;;;;14.38;91.69;99074.47;4973933;28;20711;-65
2021/06/11 04:21:02;;;;;;;10.45;7.47;;;;;;;14.53;91.17;99083.19;4974986;28;20039;-65
2021/06/11 04:23:32;;;;;;;10.50;7.82;;;;;;;14.58;90.87;99085.25;4974195;28;20377;-65
2021/06/11 04:26:00;;;;;;;12.07;7.65;;;;;;;14.64;91.07;99082.44;4974004;28;20026;-64
2021/06/11 04:28:29;;;;;;;11.40;8.18;;;;;;;14.56;89.70;99087.34;4973111;28;20503;-67
2021/06/11 04:30:54;;;;;;;11.85;7.57;;;;;;;14.63;89.94;99083.50;4971154;28;20050;-73
2021/06/11 04:33:24;;;;;;;11.48;7.50;;;;;;;14.77;89.24;99084.22;4973298;28;20026;-73
2021/06/11 04:35:49;;;;;;;11.07;6.57;;;;;;;14.99;88.65;99094.72;4974009;28;20030;-73
2021/06/11 04:38:15;;;;;;;12.25;7.75;;;;;;;15.02;87.82;99092.38;4974915;28;20031;-74
2021/06/11 04:40:41;;;;;;;12.40;7.90;;;;;;;15.09;88.20;99097.75;4973234;28;20031;-72
2021/06/11 04:43:07;;;;;;;11.23;8.05;;;;;;;15.10;87.88;99093.97;4974267;28;20031;-69
2021/06/11 04:45:32;;;;;;;9.18;7.78;;;;;;;15.07;87.74;99067.19;4974045;28;20388;-72
2021/06/11 04:47:59;;;;;;;11.18;7.88;;;;;;;15.30;86.83;99097.31;4974164;28;20384;-71
2021/06/11 04:50:25;;;;;;;13.10;7.95;;;;;;;15.38;86.60;99100.78;4975026;28;20158;-70
2021/06/11 04:52:51;;;;;;;10.27;7.43;;;;;;;15.29;86.80;99086.63;4981379;28;20133;-70
2021/06/11 04:55:16;;;;;;;16.85;9.30;;;;;;;15.49;87.51;99109.06;4978287;28;20050;-71
2021/06/11 04:57:41;;;;;;;12.57;8.32;;;;;;;15.48;87.47;99090.19;4976437;28;20026;-73
2021/06/11 05:00:09;;;;;;;10.32;7.80;;;;;;;15.66;87.09;99097.53;4984008;28;20033;-72
2021/06/11 05:02:34;;;;;;;11.23;7.93;;;;;;;15.73;86.24;99087.41;4970845;28;20039;-71
2021/06/11 05:04:59;;;;;;;9.80;7.90;;;;;;;15.88;85.23;99081.53;4977672;28;20068;-72
2021/06/11 05:07:25;;;;;;;12.25;8.63;;;;;;;16.21;83.88;99100.97;4973862;28;20027;-70
2021/06/11 05:09:50;;;;;;;12.32;7.30;;;;;;;16.22;83.93;99112.75;4974187;28;20058;-70
2021/06/11 05:12:16;;;;;;;10.32;7.43;;;;;;;16.28;83.23;99083.69;4974291;28;20023;-70
2021/06/11 05:14:41;;;;;;;13.45;7.78;;;;;;;16.51;83.24;99105.59;4973208;28;20102;-68
2021/06/11 05:17:07;;;;;;;10.23;7.53;;;;;;;16.56;82.67;99113.09;4972830;28;20366;-69
2021/06/11 05:19:32;;;;;;;11.43;7.55;;;;;;;16.74;81.94;99103.94;4972759;28;20027;-67
2021/06/11 05:21:57;;;;;;;11.88;7.65;;;;;;;16.80;81.35;99103.88;4973258;28;20022;-65
2021/06/11 05:24:22;;;;;;;12.00;7.65;;;;;;;16.92;81.18;99108.50;4972614;28;20038;-65
2021/06/11 05:26:48;;;;;;;13.43;7.80;;;;;;;16.95;81.86;99110.75;4969961;28;20031;-69
2021/06/11 05:29:13;;;;;;;10.68;7.00;;;;;;;17.12;81.16;99100.78;4954437;28;20479;-68
2021/06/11 05:31:38;;;;;;;14.50;8.23;;;;;;;17.17;81.54;99103.63;4966028;28;20432;-68
2021/06/11 05:34:03;;;;;;;11.45;7.90;;;;;;;17.27;81.72;99116.72;4972936;28;20034;-68
2021/06/11 05:36:29;;;;;;;12.07;7.95;;;;;;;17.43;80.79;99117.88;4972877;28;20026;-69
2021/06/11 05:38:54;;;;;;;12.68;7.88;;;;;;;17.74;79.82;99120.19;4971064;28;20430;-68
2021/06/11 05:41:19;;;;;;;11.20;6.95;;;;;;;17.84;79.23;99097.72;4972072;28;20042;-68
2021/06/11 05:43:45;;;;;;;8.90;7.30;;;;;;;18.07;79.10;99112.34;4971767;28;20034;-68
2021/06/11 05:46:11;;;;;;;13.90;7.80;;;;;;;18.25;78.82;99114.06;4970648;28;20126;-68
2021/06/11 05:48:39;;;;;;;10.32;7.10;;;;;;;18.43;78.22;99115.75;4971615;28;20138;-68
2021/06/11 05:51:05;;;;;;;8.27;7.18;;;;;;;18.64;76.54;99116.94;4973186;28;20433;-68
2021/06/11 05:53:30;;;;;;;9.73;6.95;;;;;;;18.75;77.75;99116.06;4972680;28;20046;-68
2021/06/11 05:55:55;;;;;;;7.63;6.55;;;;;;;18.78;76.46;99090.88;4972885;28;20026;-68
2021/06/11 05:58:21;;;;;;;8.65;6.68;;;;;;;19.16;74.89;99109.31;4972530;28;20043;-68
2021/06/11 06:00:46;;;;;;;11.45;6.95;;;;;;;19.24;74.65;99088.84;4973221;28;20037;-68
2021/06/11 06:03:12;;;;;;;10.48;6.20;;;;;;;19.33;74.55;99122.16;4972659;28;20404;-68
2021/06/11 06:05:37;;;;;;;11.65;6.88;;;;;;;18.93;76.66;99121.28;4971204;28;20034;-68
2021/06/11 06:08:03;;;;;;;10.50;6.70;;;;;;;19.19;76.15;99114.28;4970576;28;20425;-68
2021/06/11 06:10:28;;;;;;;8.43;6.53;;;;;;;19.66;73.67;99115.75;4972362;28;20041;-68
2021/06/11 06:12:53;;;;;;;10.27;6.43;;;;;;;19.84;72.34;99120.94;4966260;28;20054;-68
2021/06/11 06:15:19;;;;;;;11.45;7.03;;;;;;;19.75;72.47;99110.66;4972864;28;20023;-68
2021/06/11 06:17:44;;;;;;;10.02;6.80;;;;;;;20.12;71.05;99127.28;4982782;28;20025;-68
2021/06/11 06:20:11;;;;;;;12.18;7.35;;;;;;;20.22;71.12;99129.31;4973280;28;20042;-68
2021/06/11 06:22:37;;;;;;;13.73;7.32;;;;;;;20.27;71.04;99104.66;4972014;28;20031;-67
2021/06/11 06:25:04;;;;;;;11.38;7.28;;;;;;;20.49;70.13;99130.16;4981852;28;20031;-67
2021/06/11 06:27:29;;;;;;;10.35;6.80;;;;;;;20.52;69.66;99121.38;4971695;28;20049;-68
2021/06/11 06:29:54;;;;;;;13.82;7.43;;;;;;;20.62;69.15;99092.34;4974579;28;20477;-67
2021/06/11 06:32:19;;;;;;;11.02;7.50;;;;;;;20.46;68.43;99097.72;4977001;28;20039;-68
2021/06/11 06:34:45;;;;;;;12.00;6.85;;;;;;;20.82;68.45;99125.53;4976472;28;20069;-67
2021/06/11 06:37:11;;;;;;;13.48;6.93;;;;;;;20.92;68.79;99119.28;4976295;28;20423;-67
2021/06/11 06:39:40;;;;;;;10.65;6.60;;;;;;;21.20;67.16;99124.44;4975316;28;20023;-67
2021/06/11 06:42:06;;;;;;;11.48;7.07;;;;;;;21.83;65.79;99118.19;4976174;28;20488;-67
2021/06/11 06:44:33;;;;;;;11.13;7.00;;;;;;;21.85;65.17;99113.22;4976115;28;20045;-67
2021/06/11 06:46:58;;;;;;;8.05;6.82;;;;;;;21.56;64.95;99116.44;4975229;28;20027;-67
2021/06/11 06:49:23;;;;;;;7.80;6.60;;;;;;;21.96;64.46;99114.94;4976034;28;20358;-67
2021/06/11 06:51:49;;;;;;;11.45;6.13;;;;;;;22.59;62.45;99114.81;4976317;28;20408;-68
2021/06/11 06:54:14;;;;;;;11.95;6.75;;;;;;;23.13;59.84;99105.16;4975517;28;20082;-67
2021/06/11 06:56:39;;;;;;;7.47;5.63;;;;;;;23.52;59.46;99110.84;4975845;28;20034;-67
2021/06/11 06:59:05;;;;;;;7.57;5.93;;;;;;;23.99;57.89;99119.81;4975673;28;20039;-68
2021/06/11 07:01:30;;;;;;;6.40;5.30;;;;;;;24.94;55.83;99113.09;4974222;28;20493;-67
2021/06/11 07:04:00;;;;;;;7.38;5.90;;;;;;;25.32;54.61;99118.88;4976013;28;20121;-68
2021/06/11 07:06:27;;;;;;;6.55;5.63;;;;;;;26.24;51.92;99109.47;4975836;28;20026;-68
2021/06/11 07:08:53;;;;;;;8.93;5.70;;;;;;;27.96;47.66;99108.72;4975529;28;20500;-66
2021/06/11 07:11:18;;;;;;;6.40;5.00;;;;;;;29.06;45.26;99082.50;4976059;28;20062;-66
2021/06/11 07:13:44;;;;;;;7.68;5.00;;;;;;;30.60;41.94;99095.56;4975800;28;20023;-66
2021/06/11 07:16:10;;;;;;;10.32;5.72;;;;;;;30.43;41.97;99095.59;4975050;28;20026;-67
2021/06/11 07:18:36;;;;;;;8.95;5.50;;;;;;;31.13;41.29;99097.19;4972671;28;20035;-67
2021/06/11 07:21:02;;;;;;;7.82;5.50;;;;;;;31.33;40.53;99098.41;4970731;28;20089;-67
2021/06/11 07:23:29;;;;;;;6.03;5.40;;;;;;;31.93;39.03;99095.75;4975055;28;20058;-66
2021/06/11 07:25:54;;;;;;;5.70;4.93;;;;;;;32.65;38.05;99096.56;4974099;28;20477;-67
2021/06/11 07:28:19;;;;;;;6.78;5.38;;;;;;;32.82;38.52;99093.59;4975285;28;20033;-67
2021/06/11 07:30:44;;;;;;;6.15;5.03;;;;;;;33.67;36.66;99088.53;4975599;28;20022;-67
2021/06/11 07:33:10;;;;;;;7.57;5.00;;;;;;;33.16;37.00;99103.63;4975359;28;20030;-66
2021/06/11 07:35:36;;;;;;;9.57;5.10;;;;;;;32.72;38.25;99094.84;4975343;28;20101;-67
2021/06/11 07:38:01;;;;;;;9.63;5.75;;;;;;;32.18;38.55;99096.75;4975222;28;20034;-67
2021/06/11 07:40:27;;;;;;;5.93;5.22;;;;;;;32.48;38.19;99089.13;4973259;28;20105;-67
2021/06/11 07:42:52;;;;;;;5.75;5.15;;;;;;;32.55;38.15;99099.78;4974025;28;20031;-66
2021/06/11 07:45:18;;;;;;;4.90;4.30;;;;;;;32.70;38.47;99096.34;4975178;28;20118;-67
2021/06/11 07:47:43;;;;;;;9.55;5.38;;;;;;;32.80;37.91;99095.91;4975463;28;20027;-67
2021/06/11 07:50:09;;;;;;;6.60;4.70;;;;;;;33.90;36.37;99102.91;4975292;28;20496;-67
2021/06/11 07:52:35;;;;;;;5.50;4.72;;;;;;;34.35;35.65;99090.72;4969537;28;20286;-69
2021/06/11 07:55:03;;;;;;;8.32;5.15;;;;;;;34.29;35.08;99098.56;4968239;28;20023;-70
2021/06/11 07:57:28;;;;;;;5.10;4.60;;;;;;;35.19;34.78;99090.78;4974401;28;20508;-69
2021/06/11 07:59:53;;;;;;;10.05;5.32;;;;;;;33.13;37.09;99095.13;4974836;28;20105;-70
2021/06/11 08:02:19;;;;;;;6.63;4.80;;;;;;;34.01;36.16;99085.25;4974472;28;20037;-70
2021/06/11 08:04:44;;;;;;;8.60;4.40;;;;;;;35.84;33.84;99081.97;4973915;28;20353;-70
2021/06/11 08:07:09;;;;;;;6.43;4.78;;;;;;;33.76;36.39;99095.69;4974472;28;20117;-70
2021/06/11 08:09:35;;;;;;;5.93;4.78;;;;;;;34.38;34.82;99073.16;4974468;28;20022;-68
2021/06/11 08:12:00;;;;;;;9.70;5.05;;;;;;;34.11;35.41;99088.78;4975057;28;20077;-70
2021/06/11 08:14:26;;;;;;;6.55;5.00;;;;;;;35.12;33.93;99074.50;4973588;28;20046;-70
2021/06/11 08:16:51;;;;;;;4.10;3.65;;;;;;;35.94;32.81;99086.22;4974942;28;20381;-70
2021/06/11 08:19:16;;;;;;;4.97;4.28;;;;;;;36.67;33.16;99079.03;4973916;28;20030;-70
2021/06/11 08:21:42;;;;;;;5.83;4.60;;;;;;;35.81;33.00;99085.50;4973373;28;20039;-70
2021/06/11 08:24:07;;;;;;;5.60;5.00;;;;;;;36.17;32.36;99084.38;4974366;28;20274;-70
2021/06/11 08:26:32;;;;;;;6.20;5.53;;;;;;;35.36;33.79;99089.59;4974892;28;20031;-70
2021/06/11 08:28:58;;;;;;;11.13;5.00;;;;;;;33.85;35.64;99087.13;4974767;28;20114;-70
2021/06/11 08:31:23;;;;;;;5.93;4.87;;;;;;;34.71;34.34;99066.50;4974538;28;20274;-69
2021/06/11 08:33:48;;;;;;;6.97;4.55;;;;;;;36.18;32.48;99080.38;4973682;28;20345;-70
2021/06/11 08:36:14;;;;;;;5.38;4.20;;;;;;;36.99;32.72;99073.19;4970476;28;20050;-70
2021/06/11 08:38:40;;;;;;;4.78;4.15;;;;;;;37.15;31.02;99059.81;4955475;28;20131;-71
2021/06/11 08:41:08;;;;;;;5.05;4.28;;;;;;;36.25;32.62;99074.09;4972125;28;20026;-70
2021/06/11 08:43:34;;;;;;;6.15;4.68;;;;;;;37.19;31.11;99071.19;4973653;28;20527;-70
2021/06/11 08:45:59;;;;;;;7.80;5.20;;;;;;;36.45;31.42;99074.13;4974301;28;20039;-70
2021/06/11 08:48:25;;;;;;;5.18;4.68;;;;;;;35.87;32.79;99064.34;4974270;28;20023;-70
2021/06/11 08:50:50;;;;;;;5.40;4.30;;;;;;;36.17;32.68;99073.09;4973992;28;20062;-70
2021/06/11 08:53:17;;;;;;;4.32;3.92;;;;;;;38.02;29.96;99074.22;4972726;28;20073;-70
2021/06/11 08:55:42;;;;;;;5.28;4.20;;;;;;;35.97;32.62;99077.88;4973415;28;20077;-70
2021/06/11 08:58:08;;;;;;;5.13;3.90;;;;;;;36.02;32.46;99070.31;4973561;28;20027;-71
2021/06/11 09:00:33;;;;;;;6.40;4.28;;;;;;;36.31;31.49;99072.59;4972405;28;20278;-71
2021/06/11 09:03:12;;;;;;;4.80;4.10;;;;;;;37.59;29.28;99056.56;4972765;28;20037;-70
2021/06/11 09:05:46;;;;;;;6.13;3.55;;;;;;;35.54;30.91;99059.91;4973057;28;20062;-70
2021/06/11 09:08:21;;;;;;;3.97;3.45;;;;;;;35.22;30.52;99066.72;4973039;28;20425;-70
2021/06/11 09:10:49;;;;;;;4.18;3.75;;;;;;;35.66;30.86;99066.63;4973977;28;20019;-70
2021/06/11 09:13:27;;;;;;;5.22;3.47;;;;;;;35.96;28.88;99064.97;5054805;23;20594;-72
2021/06/11 09:16:09;;;;;;;3.45;3.15;;;;;;;37.08;28.36;99056.88;4991912;28;20037;-75
2021/06/11 09:18:49;;;;;;;4.15;3.22;;;;;;;35.67;29.41;99060.66;4993853;28;20041;-75
2021/06/11 09:21:24;;;;;;;3.72;3.42;;;;;;;37.36;28.67;99069.84;4994108;28;20034;-75
2021/06/11 09:27:00;;;;;;;6.43;3.35;;;;;;;37.00;28.13;99069.19;4958362;28;20063;-74
2021/06/11 09:29:30;;;;;;;5.05;3.10;;;;;;;36.34;28.80;99060.63;4957113;29;20070;-74
2021/06/11 09:32:08;;;;;;;3.33;2.63;;;;;;;38.50;24.93;99066.00;4971868;28;20112;-74
2021/06/11 09:34:33;;;;;;;4.93;2.95;;;;;;;37.99;28.04;99069.34;4973837;28;20038;-74
2021/06/11 09:37:05;;;;;;;6.57;4.22;;;;;;;37.39;30.59;99047.38;4975718;28;20128;-75
2021/06/11 09:39:45;;;;;;;4.75;3.53;;;;;;;38.00;27.62;99056.03;4973665;28;20081;-75
2021/06/11 09:42:13;;;;;;;4.70;3.38;;;;;;;38.46;28.75;99065.16;4979697;28;20114;-73
2021/06/11 09:44:39;;;;;;;5.90;3.30;;;;;;;38.04;28.14;99071.00;4972209;28;20034;-73
2021/06/11 09:47:04;;;;;;;3.50;3.03;;;;;;;38.24;28.38;99068.88;4988515;28;20035;-74
2021/06/11 09:49:43;;;;;;;3.30;3.00;;;;;;;38.81;26.96;99052.66;4972656;28;20026;-76
2021/06/11 09:52:11;;;;;;;4.28;3.40;;;;;;;39.26;26.83;99062.03;4966606;28;20551;-76
2021/06/11 09:54:37;;;;;;;10.05;3.55;;;;;;;39.55;26.71;99060.28;4974007;28;20082;-77
2021/06/11 09:57:22;;;;;;;5.07;3.55;;;;;;;39.00;26.57;99058.13;4973305;28;20069;-73
2021/06/11 09:59:48;;;;;;;3.80;3.15;;;;;;;40.12;25.61;99051.38;4973646;28;20042;-72
2021/06/11 10:02:19;;;;;;;3.60;3.05;;;;;;;39.59;27.08;99040.47;4973564;28;20058;-72
2021/06/11 10:04:45;;;;;;;4.75;3.83;;;;;;;40.29;25.88;99039.34;4966237;28;20031;-71
2021/06/11 10:07:12;;;;;;;4.10;3.70;;;;;;;40.00;25.82;99058.19;4966594;28;20039;-72
2021/06/11 10:09:38;;;;;;;3.67;3.38;;;;;;;39.56;25.30;99047.72;4960127;28;20078;-71
2021/06/11 10:12:04;;;;;;;3.20;2.90;;;;;;;40.56;26.11;99044.75;4962304;28;20088;-72
2021/06/11 10:14:30;;;;;;;5.60;3.33;;;;;;;40.00;25.78;99044.03;4972618;28;20085;-72
2021/06/11 10:16:55;;;;;;;3.50;3.05;;;;;;;40.27;24.36;99044.63;4974992;28;20027;-72
2021/06/11 10:19:21;;;;;;;3.20;2.95;;;;;;;40.50;25.23;99043.47;4974963;28;20090;-72
2021/06/11 10:21:46;;;;;;;4.72;3.35;;;;;;;40.32;25.66;99037.72;4971105;28;20026;-73
2021/06/11 10:24:14;;;;;;;4.40;3.28;;;;;;;39.31;26.31;99038.22;4970893;28;20026;-72
2021/06/11 10:26:41;;;;;;;3.78;3.30;;;;;;;40.02;25.43;99030.28;4972742;28;20080;-72
2021/06/11 10:29:07;;;;;;;3.38;3.08;;;;;;;39.52;26.54;99037.59;4972062;28;20632;-72
2021/06/11 10:31:36;;;;;;;3.85;2.72;;;;;;;40.18;25.85;99038.44;4969866;28;20030;-72
2021/06/11 10:34:04;;;;;;;3.70;3.10;;;;;;;39.75;25.24;99040.19;4984429;28;20455;-72
2021/06/11 10:36:30;;;;;;;3.63;3.15;;;;;;;39.52;25.82;99035.56;4970093;28;20037;-72
2021/06/11 10:38:57;;;;;;;3.22;2.83;;;;;;;38.53;26.57;99033.34;4970123;28;20028;-72
2021/06/11 10:41:24;;;;;;;5.03;3.75;;;;;;;35.34;29.93;99035.69;4970117;28;20035;-73
2021/06/11 10:43:50;;;;;;;6.03;3.63;;;;;;;34.68;31.39;99035.13;4968980;28;20640;-72
2021/06/11 10:46:31;;;;;;;3.85;3.53;;;;;;;37.10;30.26;99039.56;4970094;28;20018;-72
2021/06/11 10:48:56;;;;;;;3.50;2.97;;;;;;;38.39;27.95;99042.44;4966051;28;20042;-73
2021/06/11 10:51:35;;;;;;;3.70;3.30;;;;;;;37.66;26.93;99033.28;4969119;28;20019;-73
2021/06/11 10:54:15;;;;;;;4.10;3.58;;;;;;;35.63;31.43;99040.03;4969621;28;20400;-72
2021/06/11 10:57:02;;;;;;;4.97;3.05;;;;;;;37.12;28.69;99032.38;4969388;28;20030;-73
2021/06/11 10:59:38;;;;;;;6.00;3.70;;;;;;;36.85;28.88;99029.44;4968974;28;20114;-72
2021/06/11 11:02:05;;;;;;;4.47;3.63;;;;;;;34.78;31.40;99022.53;4969743;28;20035;-72
2021/06/11 11:04:33;;;;;;;5.22;3.90;;;;;;;35.40;31.56;99025.81;4968427;28;20025;-73
2021/06/11 11:07:23;;;;;;;5.03;3.30;;;;;;;37.19;28.55;99029.69;4966857;28;20077;-73
2021/06/11 11:09:53;;;;;;;6.75;3.22;;;;;;;39.33;25.88;99024.47;4961366;28;20134;-72
2021/06/11 11:12:19;;;;;;;4.63;3.17;;;;;;;40.26;24.21;99017.47;4969759;28;20034;-72
2021/06/11 11:14:44;;;;;;;4.63;3.05;;;;;;;40.43;24.05;99007.41;4969588;28;20042;-73
2021/06/11 11:17:12;;;;;;;3.42;2.55;;;;;;;41.42;23.79;99008.00;4973661;28;20031;-72
2021/06/11 11:19:54;;;;;;;4.47;3.13;;;;;;;40.89;24.24;99011.59;4972535;28;20030;-73
2021/06/11 11:22:29;;;;;;;6.45;3.08;;;;;;;40.73;23.81;99012.78;4969626;28;20074;-73
2021/06/11 11:24:56;;;;;;;3.20;2.90;;;;;;;40.45;23.91;98993.63;4971390;28;20080;-72
2021/06/11 11:27:22;;;;;;;3.60;2.80;;;;;;;40.56;23.87;99001.38;4972598;28;20031;-72
2021/06/11 11:29:48;;;;;;;3.45;2.97;;;;;;;40.67;23.83;99008.72;4972527;28;20105;-72
2021/06/11 11:32:13;;;;;;;4.03;3.58;;;;;;;40.25;22.85;99009.38;4972651;28;20169;-72
2021/06/11 11:34:38;;;;;;;4.32;2.97;;;;;;;40.45;24.68;98995.66;4972083;28;20039;-72